Sunday, March 24, 2019, 7:34 PM EDT
Back to Local

KSNC, Chester, Chester Airport

Location: Chester, CT, United States Lat: 41.384
Local Time: 7:34 PM EDT (23:34 GMT) Lon: -72.506
Time Zone: US/Eastern Elev: 416 ft

Show me the last for .
Show Decoded

2019-03-24 19:15 METAR KSNC 242315Z AUTO 23006G11KT 10SM CLR 08/M03 A3000 RMK AO2 =
2019-03-24 18:55 METAR KSNC 242255Z AUTO VRB06KT 10SM CLR 08/M04 A3000 RMK AO2 =
2019-03-24 18:35 METAR KSNC 242235Z AUTO 22006KT 10SM CLR 08/M05 A3000 RMK AO2 =
2019-03-24 18:15 METAR KSNC 242215Z AUTO 21006G12KT 10SM CLR 08/M05 A3000 RMK AO2 =
2019-03-24 17:55 METAR KSNC 242155Z AUTO VRB06G14KT 10SM CLR 09/M06 A3000 RMK AO2 =
2019-03-24 17:15 METAR KSNC 242115Z AUTO 21009G15KT 10SM CLR 10/M06 A2999 RMK AO2 =
2019-03-24 16:55 METAR KSNC 242055Z AUTO 21010G16KT 170V240 10SM CLR 11/M09 A2999 RMK AO2 =
2019-03-24 16:35 METAR KSNC 242035Z AUTO 21008KT 10SM CLR 11/M11 A3000 RMK AO2 =
2019-03-24 16:15 METAR KSNC 242015Z AUTO VRB06G14KT 10SM CLR 11/M10 A3002 RMK AO2 =
2019-03-24 15:55 METAR KSNC 241955Z AUTO 24008G15KT 200V270 10SM CLR 10/M10 A3002 RMK AO2 =
2019-03-24 15:35 METAR KSNC 241935Z AUTO 22010G19KT 200V270 10SM CLR 10/M10 A3003 RMK AO2 =
2019-03-24 15:15 METAR KSNC 241915Z AUTO 20009G15KT 10SM FEW060 FEW090 FEW110 11/M08 A3003 RMK
                 AO2 =
2019-03-24 14:55 METAR KSNC 241855Z AUTO 22009KT 10SM FEW055 FEW065 FEW085 11/M08 A3004 RMK AO2 =
2019-03-24 14:35 METAR KSNC 241835Z AUTO 22009KT 170V260 10SM CLR 11/M07 A3004 RMK AO2 =
2019-03-24 14:15 METAR KSNC 241815Z AUTO 21010KT 10SM FEW049 FEW070 SCT110 10/M06 A3005 RMK AO2 =
2019-03-24 13:55 METAR KSNC 241755Z AUTO 21007KT 170V250 10SM CLR 11/M06 A3006 RMK AO2 =
2019-03-24 13:35 METAR KSNC 241735Z AUTO 21008KT 190V250 10SM CLR 10/M07 A3007 RMK AO2 =
2019-03-24 13:15 METAR KSNC 241715Z AUTO 19009KT 10SM CLR 10/M06 A3008 RMK AO2 =
2019-03-24 12:55 METAR KSNC 241655Z AUTO 23007KT 190V250 10SM CLR 10/M07 A3009 RMK AO2 =
2019-03-24 12:35 METAR KSNC 241635Z AUTO 24009KT 10SM CLR 10/M10 A3009 RMK AO2 =
2019-03-24 12:15 METAR KSNC 241615Z AUTO VRB05G10KT 10SM CLR 10/M09 A3011 RMK AO2 =
2019-03-24 11:55 METAR KSNC 241555Z AUTO 26006KT 10SM CLR 09/M09 A3011 RMK AO2 =
2019-03-24 11:35 METAR KSNC 241535Z AUTO VRB06G12KT 10SM CLR 08/M09 A3013 RMK AO2 =
2019-03-24 11:15 METAR KSNC 241515Z AUTO 27007KT 250V310 10SM CLR 08/M09 A3012 RMK AO2 =
2019-03-24 10:55 METAR KSNC 241455Z AUTO 26008KT 230V290 10SM CLR 07/M10 A3012 RMK AO2 =
2019-03-24 10:35 METAR KSNC 241435Z AUTO VRB05G11KT 10SM CLR 07/M09 A3013 RMK AO2 =
2019-03-24 10:15 METAR KSNC 241415Z AUTO VRB07G14KT 10SM CLR 06/M10 A3014 RMK AO2 =
2019-03-24 09:55 METAR KSNC 241355Z AUTO 27007KT 230V310 10SM CLR 06/M10 A3014 RMK AO2 =
2019-03-24 09:35 METAR KSNC 241335Z AUTO 27007G12KT 10SM CLR 05/M09 A3014 RMK AO2 =
2019-03-24 09:15 METAR KSNC 241315Z AUTO 25007KT 220V290 10SM CLR 04/M09 A3014 RMK AO2 =
2019-03-24 08:55 METAR KSNC 241255Z AUTO 26005G11KT 10SM CLR 03/M09 A3013 RMK AO2 =
2019-03-24 08:35 METAR KSNC 241235Z AUTO VRB05G11KT 10SM CLR 02/M10 A3013 RMK AO2 =
2019-03-24 08:15 METAR KSNC 241215Z AUTO 27005KT 10SM CLR 02/M09 A3013 RMK AO2 =
2019-03-24 07:55 METAR KSNC 241155Z AUTO VRB04KT 10SM CLR 02/M09 A3013 RMK AO2 =
2019-03-24 07:35 METAR KSNC 241135Z AUTO 28004KT 10SM CLR 01/M09 A3012 RMK AO2 =
2019-03-24 07:15 METAR KSNC 241115Z AUTO 29007G13KT 10SM CLR 01/M10 A3011 RMK AO2 =
2019-03-24 06:55 METAR KSNC 241055Z AUTO 30009KT 10SM CLR 01/M10 A3011 RMK AO2 =
2019-03-24 06:35 METAR KSNC 241035Z AUTO 31008G19KT 10SM CLR 01/M10 A3010 RMK AO2 =
2019-03-24 06:15 METAR KSNC 241015Z AUTO 30007G16KT 260V330 10SM CLR 01/M10 A3010 RMK AO2 =
2019-03-24 05:55 METAR KSNC 240955Z AUTO 30009G19KT 10SM CLR 01/M10 A3010 RMK AO2 =
2019-03-24 05:35 METAR KSNC 240935Z AUTO 31010G15KT 10SM CLR 00/M10 A3009 RMK AO2 =
2019-03-24 05:15 METAR KSNC 240915Z AUTO 30008G14KT 10SM CLR 00/M10 A3010 RMK AO2 =
2019-03-24 04:55 METAR KSNC 240855Z AUTO 31010KT 10SM CLR 00/M11 A3010 RMK AO2 =
2019-03-24 04:35 METAR KSNC 240835Z AUTO 30007KT 10SM CLR M00/M11 A3010 RMK AO2 =
2019-03-24 04:15 METAR KSNC 240815Z AUTO VRB06KT 10SM CLR M00/M11 A3010 RMK AO2 =
2019-03-24 03:55 METAR KSNC 240755Z AUTO 31006KT 10SM CLR M00/M11 A3010 RMK AO2 =
2019-03-24 03:35 METAR KSNC 240735Z AUTO 30006KT 10SM CLR M01/M11 A3010 RMK AO2 =
2019-03-24 03:15 METAR KSNC 240715Z AUTO 30004KT 10SM CLR M01/M11 A3010 RMK AO2 =
2019-03-24 02:55 METAR KSNC 240655Z AUTO 28004KT 10SM CLR M01/M11 A3009 RMK AO2 =
2019-03-24 02:35 METAR KSNC 240635Z AUTO 30006G13KT 10SM CLR M00/M12 A3008 RMK AO2 =
2019-03-24 02:15 METAR KSNC 240615Z AUTO 30010G15KT 10SM CLR 00/M12 A3007 RMK AO2 =
2019-03-24 01:55 METAR KSNC 240555Z AUTO 30008G16KT 10SM CLR 00/M12 A3007 RMK AO2 =
2019-03-24 01:35 METAR KSNC 240535Z AUTO 29008G14KT 10SM CLR 00/M12 A3007 RMK AO2 =
2019-03-24 01:15 METAR KSNC 240515Z AUTO 30007G13KT 10SM CLR 01/M12 A3007 RMK AO2 =
2019-03-24 00:55 METAR KSNC 240455Z AUTO 31007G16KT 10SM CLR 00/M13 A3007 RMK AO2 =
2019-03-24 00:35 METAR KSNC 240435Z AUTO 30004G11KT 10SM CLR 01/M12 A3007 RMK AO2 =
2019-03-24 00:15 METAR KSNC 240415Z AUTO 30007G15KT 10SM CLR 01/M13 A3007 RMK AO2 =
2019-03-23 23:55 METAR KSNC 240355Z AUTO 31008G14KT 10SM CLR 01/M13 A3006 RMK AO2 =
2019-03-23 23:35 METAR KSNC 240335Z AUTO 32008KT 10SM CLR 01/M13 A3005 RMK AO2 =
2019-03-23 23:15 METAR KSNC 240315Z AUTO VRB05KT 10SM CLR 01/M13 A3005 RMK AO2 =
2019-03-23 22:55 METAR KSNC 240255Z AUTO 31009G16KT 10SM CLR 01/M13 A3004 RMK AO2 =
2019-03-23 22:35 METAR KSNC 240235Z AUTO 31007G17KT 280V340 10SM CLR 02/M13 A3004 RMK AO2 =
2019-03-23 22:15 METAR KSNC 240215Z AUTO 30007G23KT 10SM CLR 02/M13 A3003 RMK AO2 =
2019-03-23 21:55 METAR KSNC 240155Z AUTO 31012G26KT 10SM CLR 02/M13 A3002 RMK AO2 =
2019-03-23 21:35 METAR KSNC 240135Z AUTO 31013G22KT 10SM CLR 02/M13 A3001 RMK AO2 =
2019-03-23 21:15 METAR KSNC 240115Z AUTO 31014G22KT 270V330 10SM CLR 02/M13 A3000 RMK AO2 =
2019-03-23 20:55 METAR KSNC 240055Z AUTO 32007G14KT 290V010 10SM CLR 03/M13 A2999 RMK AO2 =
2019-03-23 20:35 METAR KSNC 240035Z AUTO 30012G21KT 260V320 10SM CLR 03/M13 A2997 RMK AO2 =
2019-03-23 20:15 METAR KSNC 240015Z AUTO 32012G20KT 290V350 10SM CLR 03/M13 A2997 RMK AO2 =
2019-03-23 19:55 METAR KSNC 232355Z AUTO 31012G23KT 260V360 10SM CLR 03/M13 A2995 RMK AO2 =
2019-03-23 19:35 METAR KSNC 232335Z AUTO 31016G24KT 10SM CLR 04/M12 A2993 RMK AO2 =

Support USWX by starting your Amazon purchase here.